createdAt,value
2023-04-27T00:01:44.194Z,3.40
2023-04-27T00:04:11.102Z,3.30
2023-04-27T00:06:38.032Z,3.43
2023-04-27T00:09:04.850Z,3.00
2023-04-27T00:11:31.867Z,3.33
2023-04-27T00:13:58.653Z,3.00
2023-04-27T00:16:25.668Z,3.67
2023-04-27T00:18:52.520Z,4.67
2023-04-27T00:21:19.341Z,3.87
2023-04-27T00:23:46.215Z,4.07
2023-04-27T00:26:12.940Z,3.20
2023-04-27T00:28:39.683Z,3.90
2023-04-27T00:31:06.550Z,3.53
2023-04-27T00:33:33.326Z,3.13
2023-04-27T00:36:03.830Z,4.20
2023-04-27T00:38:30.941Z,2.93
2023-04-27T00:41:05.080Z,3.10
2023-04-27T00:43:32.658Z,3.17
2023-04-27T00:46:00.960Z,3.30
2023-04-27T00:48:28.240Z,3.00
2023-04-27T00:50:55.053Z,3.00
2023-04-27T00:53:22.229Z,3.53
2023-04-27T00:55:48.986Z,3.43
2023-04-27T00:58:15.787Z,3.33
2023-04-27T01:00:42.648Z,3.23
2023-04-27T01:03:10.070Z,3.50
2023-04-27T01:05:38.052Z,3.20
2023-04-27T01:08:05.448Z,3.27
2023-04-27T01:10:32.151Z,4.00
2023-04-27T01:12:59.126Z,3.17
2023-04-27T01:15:26.043Z,3.10
2023-04-27T01:17:59.938Z,3.50
2023-04-27T01:20:30.309Z,3.20
2023-04-27T01:22:57.363Z,3.30
2023-04-27T01:25:24.617Z,3.27
2023-04-27T01:27:51.495Z,2.80
2023-04-27T01:30:18.397Z,3.23
2023-04-27T01:32:45.236Z,3.40
2023-04-27T01:35:12.041Z,3.03
2023-04-27T01:37:38.785Z,3.57
2023-04-27T01:40:06.654Z,2.70
2023-04-27T01:42:33.429Z,3.00
2023-04-27T01:45:00.744Z,3.00
2023-04-27T01:47:27.914Z,3.57
2023-04-27T01:49:54.755Z,3.30
2023-04-27T01:52:21.448Z,3.47
2023-04-27T01:54:48.129Z,3.17
2023-04-27T01:57:14.963Z,3.30
2023-04-27T01:59:41.718Z,2.80
2023-04-27T02:02:08.665Z,3.77
2023-04-27T02:04:36.706Z,3.20
2023-04-27T02:07:03.587Z,3.80
2023-04-27T02:09:30.319Z,3.17
2023-04-27T02:11:57.017Z,3.63
2023-04-27T02:14:23.761Z,3.00
2023-04-27T02:16:50.588Z,3.20
2023-04-27T02:19:17.265Z,3.33
2023-04-27T02:21:44.016Z,3.53
2023-04-27T02:24:10.796Z,3.07
2023-04-27T02:26:37.536Z,3.00
2023-04-27T02:29:04.257Z,3.27
2023-04-27T02:31:31.510Z,3.27
2023-04-27T02:33:58.231Z,3.60
2023-04-27T02:36:24.934Z,3.63
2023-04-27T02:38:51.694Z,3.50
2023-04-27T02:41:18.457Z,3.50
2023-04-27T02:43:46.819Z,3.30
2023-04-27T02:46:14.006Z,3.17
2023-04-27T02:48:40.913Z,3.60
2023-04-27T02:51:07.667Z,3.47
2023-04-27T02:53:34.402Z,3.80
2023-04-27T02:56:01.414Z,3.17
2023-04-27T02:58:28.114Z,3.30
2023-04-27T03:00:57.961Z,3.57
2023-04-27T03:03:24.861Z,3.57
2023-04-27T03:05:51.693Z,3.80
2023-04-27T03:08:18.513Z,3.57
2023-04-27T03:10:45.224Z,3.63
2023-04-27T03:13:12.008Z,3.70
2023-04-27T03:15:38.744Z,3.53
2023-04-27T03:18:06.196Z,3.33
2023-04-27T03:20:33.101Z,3.17
2023-04-27T03:22:59.816Z,3.30
2023-04-27T03:25:26.771Z,3.47
2023-04-27T03:27:53.455Z,3.30
2023-04-27T03:30:20.397Z,4.00
2023-04-27T03:32:47.888Z,3.43
2023-04-27T03:35:15.195Z,3.47
2023-04-27T03:37:41.963Z,3.40
2023-04-27T03:40:09.288Z,4.10
2023-04-27T03:42:35.993Z,3.70
2023-04-27T03:45:02.993Z,3.40
2023-04-27T03:47:29.831Z,3.90
2023-04-27T03:49:56.652Z,3.80
2023-04-27T03:52:23.402Z,3.80
2023-04-27T03:54:50.220Z,3.23
2023-04-27T03:57:16.890Z,3.13
2023-04-27T03:59:43.578Z,3.40
2023-04-27T04:02:11.806Z,4.13
2023-04-27T04:04:38.943Z,4.17
2023-04-27T04:07:05.976Z,3.87
2023-04-27T04:09:32.750Z,3.83
2023-04-27T04:11:59.449Z,3.60
2023-04-27T04:14:27.949Z,3.40
2023-04-27T04:16:54.718Z,3.80
2023-04-27T04:19:22.211Z,3.40
2023-04-27T04:21:49.136Z,3.43
2023-04-27T04:24:16.418Z,3.50
2023-04-27T04:26:43.117Z,3.87
2023-04-27T04:29:12.603Z,3.70
2023-04-27T04:31:40.053Z,3.73
2023-04-27T04:34:06.947Z,4.37
2023-04-27T04:36:33.724Z,4.90
2023-04-27T04:39:05.318Z,5.03
2023-04-27T04:41:32.403Z,4.40
2023-04-27T04:43:59.656Z,4.40
2023-04-27T04:46:26.464Z,3.93
2023-04-27T04:48:54.805Z,4.00
2023-04-27T04:51:21.806Z,3.80
2023-04-27T04:53:48.803Z,4.20
2023-04-27T04:56:16.892Z,4.03
2023-04-27T04:58:43.574Z,4.40
2023-04-27T05:01:10.870Z,4.20
2023-04-27T05:03:37.951Z,5.17
2023-04-27T05:06:05.115Z,5.13
2023-04-27T05:08:31.939Z,5.10
2023-04-27T05:10:58.781Z,4.83
2023-04-27T05:13:25.737Z,4.00
2023-04-27T05:15:52.693Z,4.20
2023-04-27T05:18:19.742Z,4.40
2023-04-27T05:20:46.575Z,4.23
2023-04-27T05:23:13.373Z,3.97
2023-04-27T05:25:42.923Z,3.37
2023-04-27T05:28:10.748Z,3.60
2023-04-27T05:30:38.092Z,3.43
2023-04-27T05:33:05.427Z,3.27
2023-04-27T05:35:32.912Z,3.37
2023-04-27T05:38:00.269Z,3.40
2023-04-27T05:40:27.565Z,3.27
2023-04-27T05:42:54.343Z,2.60
2023-04-27T05:45:21.714Z,3.10
2023-04-27T05:47:48.477Z,3.40
2023-04-27T05:50:15.517Z,3.00
2023-04-27T05:52:42.346Z,3.47
2023-04-27T05:55:09.380Z,3.90
2023-04-27T05:57:36.130Z,3.57
2023-04-27T06:00:08.542Z,3.57
2023-04-27T06:02:35.604Z,3.37
2023-04-27T06:05:02.526Z,3.43
2023-04-27T06:07:29.300Z,2.80
2023-04-27T06:09:56.078Z,3.03
2023-04-27T06:12:22.742Z,2.97
2023-04-27T06:14:49.478Z,3.20
2023-04-27T06:17:16.194Z,3.30
2023-04-27T06:19:42.863Z,3.40
2023-04-27T06:22:11.624Z,3.70
2023-04-27T06:24:38.580Z,3.77
2023-04-27T06:27:06.771Z,3.30
2023-04-27T06:29:33.477Z,3.70
2023-04-27T06:32:00.370Z,3.00
2023-04-27T06:34:27.135Z,3.50
2023-04-27T06:36:53.809Z,3.07
2023-04-27T06:39:20.477Z,3.27
2023-04-27T06:41:47.141Z,3.27
2023-04-27T06:44:13.821Z,3.30
2023-04-27T06:46:40.545Z,3.20
2023-04-27T06:49:07.341Z,3.03
2023-04-27T06:51:34.228Z,3.10
2023-04-27T06:54:00.937Z,2.87
2023-04-27T06:56:27.620Z,3.30
2023-04-27T06:58:54.312Z,3.33
2023-04-27T07:01:21.152Z,3.20
2023-04-27T07:03:47.998Z,3.23
2023-04-27T07:06:14.814Z,3.47
2023-04-27T07:08:41.970Z,3.00
2023-04-27T07:11:08.865Z,3.00
2023-04-27T07:13:35.605Z,2.97
2023-04-27T07:16:02.318Z,3.13
2023-04-27T07:18:29.112Z,2.90
2023-04-27T07:20:57.930Z,3.27
2023-04-27T07:23:24.673Z,2.90
2023-04-27T07:25:52.048Z,2.80
2023-04-27T07:28:18.832Z,2.97
2023-04-27T07:30:45.763Z,2.88
2023-04-27T07:33:13.069Z,3.00
2023-04-27T07:35:39.837Z,3.03
2023-04-27T07:38:07.522Z,2.88
2023-04-27T07:40:34.557Z,2.90
2023-04-27T07:43:01.297Z,3.08
2023-04-27T07:45:32.295Z,3.35
2023-04-27T07:48:00.285Z,3.33
2023-04-27T07:50:28.448Z,3.25
2023-04-27T07:52:55.360Z,2.95
2023-04-27T07:55:23.566Z,3.17
2023-04-27T07:57:52.218Z,3.03
2023-04-27T08:00:19.401Z,2.92
2023-04-27T08:02:47.790Z,3.00
2023-04-27T08:05:15.213Z,3.17
2023-04-27T08:07:44.928Z,3.20
2023-04-27T08:10:12.236Z,3.10
2023-04-27T08:12:39.049Z,3.63
2023-04-27T08:15:07.494Z,3.30
2023-04-27T08:17:35.150Z,4.10
2023-04-27T08:20:01.887Z,3.10
2023-04-27T08:22:28.674Z,2.97
2023-04-27T08:24:55.796Z,3.70
2023-04-27T08:27:22.609Z,3.63
2023-04-27T08:29:49.563Z,2.97
2023-04-27T08:32:16.684Z,2.95
2023-04-27T08:34:44.947Z,3.22
2023-04-27T08:37:11.741Z,2.53
2023-04-27T08:39:38.851Z,3.05
2023-04-27T08:42:12.366Z,3.22
2023-04-27T08:44:40.358Z,3.17
2023-04-27T08:47:08.795Z,3.17
2023-04-27T08:49:38.280Z,3.20
2023-04-27T08:52:12.724Z,2.97
2023-04-27T08:54:39.557Z,3.38
2023-04-27T08:57:13.463Z,3.30
2023-04-27T08:59:46.439Z,3.03
2023-04-27T09:02:20.684Z,3.17
2023-04-27T09:04:47.795Z,3.70
2023-04-27T09:07:18.414Z,3.40
2023-04-27T09:09:45.632Z,3.22
2023-04-27T09:12:21.298Z,3.42
2023-04-27T09:15:08.486Z,3.63
2023-04-27T09:17:38.628Z,3.58
2023-04-27T09:20:15.171Z,3.28
2023-04-27T09:22:46.114Z,3.33
2023-04-27T09:25:27.568Z,3.05
2023-04-27T09:27:55.057Z,3.20
2023-04-27T09:30:22.122Z,3.33
2023-04-27T09:32:53.675Z,3.50
2023-04-27T09:35:23.290Z,3.50
2023-04-27T09:37:52.931Z,3.55
2023-04-27T09:40:23.566Z,3.08
2023-04-27T09:42:51.267Z,3.58
2023-04-27T09:45:19.603Z,3.10
2023-04-27T09:47:46.807Z,3.40
2023-04-27T09:50:14.240Z,3.60
2023-04-27T09:52:41.325Z,3.60
2023-04-27T09:55:16.173Z,3.42
2023-04-27T09:57:55.703Z,3.58
2023-04-27T10:00:42.973Z,3.42
2023-04-27T10:03:24.024Z,3.42
2023-04-27T10:06:26.826Z,3.50
2023-04-27T10:08:53.679Z,3.50
2023-04-27T10:11:20.447Z,3.65
2023-04-27T10:13:55.126Z,3.50
2023-04-27T10:16:22.431Z,3.58
2023-04-27T10:18:55.751Z,3.10
2023-04-27T10:21:23.779Z,3.72
2023-04-27T10:23:52.030Z,3.08
2023-04-27T10:26:28.339Z,3.35
2023-04-27T10:29:09.088Z,3.80
2023-04-27T10:31:36.180Z,3.58
2023-04-27T10:34:08.512Z,3.47
2023-04-27T10:36:40.846Z,3.50
2023-04-27T10:39:16.890Z,3.40
2023-04-27T10:41:54.094Z,3.50
2023-04-27T10:44:25.063Z,4.00
2023-04-27T10:46:53.310Z,3.53
2023-04-27T10:49:20.458Z,3.95
2023-04-27T10:51:51.424Z,3.13
2023-04-27T10:54:18.822Z,3.22
2023-04-27T10:56:46.011Z,4.05
2023-04-27T10:59:13.205Z,3.80
2023-04-27T11:01:40.421Z,3.75
2023-04-27T11:04:07.225Z,4.10
2023-04-27T11:06:43.407Z,3.22
2023-04-27T11:09:11.189Z,3.80
2023-04-27T11:11:37.989Z,3.67
2023-04-27T11:14:04.766Z,4.10
2023-04-27T11:16:33.054Z,4.10
2023-04-27T11:19:05.413Z,4.20
2023-04-27T11:21:32.449Z,4.40
2023-04-27T11:24:09.940Z,3.90
2023-04-27T11:26:36.896Z,3.70
2023-04-27T11:29:14.032Z,3.70
2023-04-27T11:31:43.811Z,3.50
2023-04-27T11:34:16.458Z,3.35
2023-04-27T11:36:43.383Z,3.97
2023-04-27T11:39:18.584Z,3.60
2023-04-27T11:41:46.562Z,3.33
2023-04-27T11:44:13.510Z,3.80
2023-04-27T11:46:44.514Z,3.45
2023-04-27T11:49:12.428Z,3.65
2023-04-27T11:51:40.572Z,3.58
2023-04-27T11:54:07.983Z,3.53
2023-04-27T11:56:39.456Z,3.75
2023-04-27T11:59:06.496Z,3.70
2023-04-27T12:01:37.953Z,3.83
2023-04-27T12:04:07.842Z,3.33
2023-04-27T12:06:34.772Z,3.60
2023-04-27T12:09:01.717Z,3.22
2023-04-27T12:11:28.538Z,3.03
2023-04-27T12:13:55.624Z,3.40
2023-04-27T12:16:22.987Z,3.65
2023-04-27T12:18:52.727Z,3.85
2023-04-27T12:21:19.717Z,3.33
2023-04-27T12:23:46.515Z,3.33
2023-04-27T12:26:15.179Z,3.20
2023-04-27T12:28:42.265Z,3.20
2023-04-27T12:31:09.150Z,3.25
2023-04-27T12:33:36.158Z,3.10
2023-04-27T12:36:02.990Z,3.28
2023-04-27T12:38:29.748Z,3.45
2023-04-27T12:40:56.741Z,2.92
2023-04-27T12:43:23.466Z,3.45
2023-04-27T12:45:50.597Z,3.30
2023-04-27T12:48:17.779Z,4.00
2023-04-27T12:50:44.733Z,3.95
2023-04-27T12:53:11.727Z,2.97
2023-04-27T12:55:38.389Z,3.80
2023-04-27T12:58:05.125Z,3.33
2023-04-27T13:00:32.176Z,3.08
2023-04-27T13:02:59.056Z,4.05
2023-04-27T13:05:26.484Z,3.22
2023-04-27T13:07:53.482Z,3.33
2023-04-27T13:10:20.273Z,3.40
2023-04-27T13:12:47.090Z,3.40
2023-04-27T13:15:13.873Z,3.38
2023-04-27T13:17:43.028Z,3.00
2023-04-27T13:20:10.949Z,3.25
2023-04-27T13:22:37.744Z,3.55
2023-04-27T13:25:06.020Z,3.58
2023-04-27T13:27:32.753Z,3.30
2023-04-27T13:29:59.522Z,3.65
2023-04-27T13:32:26.794Z,3.38
2023-04-27T13:34:53.516Z,3.40
2023-04-27T13:37:20.234Z,3.10
2023-04-27T13:39:46.935Z,2.88
2023-04-27T13:42:13.668Z,2.72
2023-04-27T13:44:40.613Z,3.00
2023-04-27T13:47:08.077Z,3.30
2023-04-27T13:49:34.865Z,3.40
2023-04-27T13:52:01.898Z,3.20
2023-04-27T13:54:29.121Z,2.67
2023-04-27T13:56:56.213Z,3.45
2023-04-27T13:59:22.999Z,3.20
2023-04-27T14:01:51.349Z,2.80
2023-04-27T14:04:18.176Z,3.13
2023-04-27T14:06:45.878Z,3.10
2023-04-27T14:09:12.777Z,2.58
2023-04-27T14:11:52.471Z,2.80
2023-04-27T14:14:23.175Z,2.78
2023-04-27T14:16:51.408Z,3.30
2023-04-27T14:19:20.694Z,3.50
2023-04-27T14:21:49.326Z,3.10
2023-04-27T14:24:16.729Z,2.80
2023-04-27T14:26:43.974Z,3.20
2023-04-27T14:29:12.772Z,3.05
2023-04-27T14:31:40.508Z,2.30
2023-04-27T14:34:08.312Z,3.15
2023-04-27T14:36:35.858Z,3.50
2023-04-27T14:39:03.038Z,3.15
2023-04-27T14:41:30.497Z,3.30
2023-04-27T14:43:57.217Z,3.47
2023-04-27T14:46:24.064Z,2.75
2023-04-27T14:48:51.457Z,3.00
2023-04-27T14:51:18.388Z,3.25
2023-04-27T14:53:45.086Z,2.70
2023-04-27T14:56:12.417Z,2.80
2023-04-27T14:58:39.170Z,3.20
2023-04-27T15:01:06.930Z,2.88
2023-04-27T15:03:34.281Z,2.72
2023-04-27T15:06:01.821Z,3.40
2023-04-27T15:08:30.222Z,2.97
2023-04-27T15:10:59.938Z,3.28
2023-04-27T15:13:27.652Z,3.50
2023-04-27T15:15:58.571Z,3.30
2023-04-27T15:18:25.939Z,2.90
2023-04-27T15:20:54.132Z,3.08
2023-04-27T15:23:22.149Z,3.03
2023-04-27T15:25:50.194Z,5.65
2023-04-27T15:28:18.085Z,3.97
2023-04-27T15:30:45.698Z,4.80
2023-04-27T15:33:14.009Z,7.65
2023-04-27T15:35:41.176Z,3.03
2023-04-27T15:38:09.692Z,3.00
2023-04-27T15:40:36.628Z,3.40
2023-04-27T15:43:03.457Z,3.05
2023-04-27T15:45:30.611Z,3.20
2023-04-27T15:47:57.826Z,3.33
2023-04-27T15:50:24.718Z,3.03
2023-04-27T15:52:52.232Z,2.28
2023-04-27T15:55:19.140Z,3.03
2023-04-27T15:57:46.919Z,3.15
2023-04-27T16:00:16.306Z,3.38
2023-04-27T16:02:43.898Z,2.50
2023-04-27T16:05:11.216Z,2.88
2023-04-27T16:07:42.051Z,2.83
2023-04-27T16:10:09.445Z,2.67
2023-04-27T16:12:36.717Z,2.97
2023-04-27T16:15:04.534Z,2.75
2023-04-27T16:17:33.591Z,2.90
2023-04-27T16:20:00.365Z,2.40
2023-04-27T16:22:28.017Z,2.33
2023-04-27T16:24:54.777Z,3.05
2023-04-27T16:27:22.660Z,3.45
2023-04-27T16:29:49.658Z,3.05
2023-04-27T16:32:17.518Z,2.50
2023-04-27T16:34:44.306Z,3.10
2023-04-27T16:37:11.567Z,2.67
2023-04-27T16:39:38.590Z,2.60
2023-04-27T16:42:05.645Z,2.70
2023-04-27T16:44:32.379Z,2.25
2023-04-27T16:46:59.157Z,3.58
2023-04-27T16:49:25.937Z,2.60
2023-04-27T16:51:54.360Z,2.50
2023-04-27T16:54:21.572Z,2.65
2023-04-27T16:56:50.076Z,2.25
2023-04-27T16:59:17.152Z,2.63
2023-04-27T17:01:44.159Z,3.00
2023-04-27T17:04:11.458Z,2.20
2023-04-27T17:06:39.201Z,2.92
2023-04-27T17:09:06.087Z,2.63
2023-04-27T17:11:32.899Z,2.55
2023-04-27T17:13:59.843Z,2.63
2023-04-27T17:16:27.226Z,2.92
2023-04-27T17:18:56.201Z,2.63
2023-04-27T17:21:25.070Z,3.25
2023-04-27T17:23:53.172Z,3.00
2023-04-27T17:26:21.524Z,3.10
2023-04-27T17:28:49.247Z,2.88
2023-04-27T17:31:17.502Z,3.05
2023-04-27T17:33:45.920Z,2.80
2023-04-27T17:36:12.991Z,3.13
2023-04-27T17:38:39.812Z,2.33
2023-04-27T17:41:06.847Z,3.03
2023-04-27T17:43:33.707Z,3.13
2023-04-27T17:46:00.683Z,3.00
2023-04-27T17:48:27.462Z,4.18
2023-04-27T17:50:54.401Z,3.33
2023-04-27T17:53:21.654Z,3.00
2023-04-27T17:55:48.463Z,3.17
2023-04-27T17:58:17.106Z,3.60
2023-04-27T18:00:45.009Z,2.97
2023-04-27T18:03:12.339Z,2.70
2023-04-27T18:05:39.223Z,2.27
2023-04-27T18:08:06.223Z,3.13
2023-04-27T18:10:33.184Z,2.40
2023-04-27T18:13:01.058Z,2.50
2023-04-27T18:15:27.917Z,2.60
2023-04-27T18:17:55.002Z,3.17
2023-04-27T18:20:23.407Z,3.10
2023-04-27T18:22:50.586Z,3.10
2023-04-27T18:25:17.400Z,3.03
2023-04-27T18:27:45.195Z,2.93
2023-04-27T18:30:12.217Z,3.10
2023-04-27T18:32:39.069Z,3.00
2023-04-27T18:35:06.478Z,3.00
2023-04-27T18:37:33.277Z,2.80
2023-04-27T18:40:00.074Z,2.83
2023-04-27T18:42:26.869Z,2.60
2023-04-27T18:45:00.479Z,2.40
2023-04-27T18:47:28.678Z,2.83
2023-04-27T18:49:55.406Z,2.77
2023-04-27T18:52:22.143Z,5.40
2023-04-27T18:54:48.852Z,9.17
2023-04-27T18:57:15.605Z,8.60
2023-04-27T18:59:42.560Z,8.60
2023-04-27T19:02:09.409Z,11.50
2023-04-27T19:04:36.273Z,12.60
2023-04-27T19:07:03.380Z,12.97
2023-04-27T19:09:30.127Z,12.53
2023-04-27T19:12:02.764Z,10.57
2023-04-27T19:14:30.751Z,9.63
2023-04-27T19:16:57.588Z,8.03
2023-04-27T19:19:24.988Z,5.93
2023-04-27T19:21:51.924Z,5.47
2023-04-27T19:24:18.698Z,5.10
2023-04-27T19:26:46.755Z,5.63
2023-04-27T19:29:13.917Z,5.13
2023-04-27T19:31:40.921Z,6.10
2023-04-27T19:34:07.726Z,9.40
2023-04-27T19:36:34.524Z,8.53
2023-04-27T19:39:01.307Z,6.13
2023-04-27T19:41:28.346Z,5.23
2023-04-27T19:43:55.445Z,5.13
2023-04-27T19:46:22.221Z,5.60
2023-04-27T19:48:48.968Z,4.77
2023-04-27T19:51:15.721Z,4.97
2023-04-27T19:53:43.592Z,4.40
2023-04-27T19:56:10.540Z,4.30
2023-04-27T19:58:37.371Z,4.60
2023-04-27T20:01:04.150Z,5.20
2023-04-27T20:03:31.086Z,5.23
2023-04-27T20:05:58.313Z,5.20
2023-04-27T20:08:25.215Z,5.17
2023-04-27T20:10:52.129Z,5.40
2023-04-27T20:13:18.963Z,7.37
2023-04-27T20:15:46.548Z,8.57
2023-04-27T20:18:13.751Z,9.03
2023-04-27T20:20:42.001Z,8.27
2023-04-27T20:23:08.829Z,7.73
2023-04-27T20:25:35.537Z,7.03
2023-04-27T20:28:02.370Z,7.20
2023-04-27T20:30:29.254Z,6.73
2023-04-27T20:32:56.527Z,7.40
2023-04-27T20:35:24.201Z,8.03
2023-04-27T20:37:52.045Z,7.53
2023-04-27T20:40:19.005Z,7.47
2023-04-27T20:42:46.281Z,7.80
2023-04-27T20:45:13.261Z,8.87
2023-04-27T20:47:40.383Z,9.23
2023-04-27T20:50:09.047Z,7.90
2023-04-27T20:52:35.978Z,7.07
2023-04-27T20:55:03.724Z,6.57
2023-04-27T20:57:30.516Z,6.53
2023-04-27T20:59:57.371Z,6.47
2023-04-27T21:02:24.129Z,5.83
2023-04-27T21:04:51.058Z,5.77
2023-04-27T21:07:17.937Z,5.53
2023-04-27T21:09:44.603Z,5.53
2023-04-27T21:12:14.320Z,4.83
2023-04-27T21:14:41.126Z,4.70
2023-04-27T21:17:07.921Z,4.97
2023-04-27T21:19:34.650Z,5.10
2023-04-27T21:22:01.430Z,5.13
2023-04-27T21:24:28.169Z,5.00
2023-04-27T21:26:54.837Z,4.70
2023-04-27T21:29:21.605Z,4.70
2023-04-27T21:31:48.295Z,5.07
2023-04-27T21:34:15.228Z,4.90
2023-04-27T21:36:42.110Z,4.90
2023-04-27T21:39:08.807Z,5.93
2023-04-27T21:41:35.733Z,6.30
2023-04-27T21:44:02.551Z,6.90
2023-04-27T21:46:29.397Z,6.77
2023-04-27T21:48:56.107Z,6.70
2023-04-27T21:51:22.834Z,6.37
2023-04-27T21:53:49.577Z,6.83
2023-04-27T21:56:16.268Z,6.67
2023-04-27T21:58:42.966Z,5.67
2023-04-27T22:01:11.186Z,5.80
2023-04-27T22:03:38.274Z,5.50
2023-04-27T22:06:06.279Z,5.37
2023-04-27T22:08:32.998Z,4.87
2023-04-27T22:10:59.753Z,5.33
2023-04-27T22:13:26.467Z,4.73
2023-04-27T22:15:53.230Z,4.50
2023-04-27T22:18:20.005Z,4.47
2023-04-27T22:20:47.288Z,4.93
2023-04-27T22:23:13.966Z,4.77
2023-04-27T22:25:42.808Z,5.00
2023-04-27T22:28:10.849Z,4.80
2023-04-27T22:30:38.683Z,4.77
2023-04-27T22:33:05.450Z,5.10
2023-04-27T22:35:33.530Z,5.00
2023-04-27T22:38:00.506Z,5.20
2023-04-27T22:40:27.201Z,5.17
2023-04-27T22:42:55.080Z,5.40
2023-04-27T22:45:22.722Z,4.90
2023-04-27T22:47:49.670Z,5.00
2023-04-27T22:50:16.853Z,4.73
2023-04-27T22:52:43.946Z,4.77
2023-04-27T22:55:12.077Z,4.63
2023-04-27T22:57:39.463Z,5.03
2023-04-27T23:00:09.009Z,5.03
2023-04-27T23:02:36.181Z,5.00
2023-04-27T23:05:03.800Z,4.87
2023-04-27T23:07:30.621Z,5.00
2023-04-27T23:09:57.382Z,4.93
2023-04-27T23:12:26.756Z,5.17
2023-04-27T23:14:53.502Z,5.13
2023-04-27T23:17:22.712Z,4.33
2023-04-27T23:19:49.730Z,4.63
2023-04-27T23:22:16.621Z,5.10
2023-04-27T23:24:43.279Z,4.80
2023-04-27T23:27:09.985Z,4.67
2023-04-27T23:29:36.725Z,5.00
2023-04-27T23:32:04.348Z,5.57
2023-04-27T23:34:34.078Z,5.37
2023-04-27T23:37:00.996Z,5.67
2023-04-27T23:39:28.538Z,5.53
2023-04-27T23:41:55.305Z,5.47
2023-04-27T23:44:22.231Z,5.50
2023-04-27T23:46:49.054Z,5.37
2023-04-27T23:49:15.884Z,5.33
2023-04-27T23:51:42.629Z,5.73
2023-04-27T23:54:09.319Z,5.27
2023-04-27T23:56:36.607Z,5.23
2023-04-27T23:59:03.517Z,5.67
